sensor_id;sensor_type;location;lat;lon;timestamp;pressure;altitude;pressure_sealevel;temperature;humidity
68508;BME280;55510;49.560;19.090;2023-02-17T00:00:44;97177.19;;;-3.01;98.86
68508;BME280;55510;49.560;19.090;2023-02-17T00:03:55;97178.28;;;-3.04;99.40
68508;BME280;55510;49.560;19.090;2023-02-17T00:06:56;97172.53;;;-3.08;99.09
68508;BME280;55510;49.560;19.090;2023-02-17T00:09:57;97171.03;;;-3.10;99.40
68508;BME280;55510;49.560;19.090;2023-02-17T00:12:58;97168.28;;;-3.09;99.99
68508;BME280;55510;49.560;19.090;2023-02-17T00:16:05;97169.38;;;-3.11;100.00
68508;BME280;55510;49.560;19.090;2023-02-17T00:19:06;97166.50;;;-3.18;100.00
68508;BME280;55510;49.560;19.090;2023-02-17T00:22:22;97159.91;;;-3.22;99.87
68508;BME280;55510;49.560;19.090;2023-02-17T00:25:23;97161.84;;;-3.24;100.00
68508;BME280;55510;49.560;19.090;2023-02-17T00:28:24;97169.94;;;-3.08;100.00
68508;BME280;55510;49.560;19.090;2023-02-17T00:31:25;97161.53;;;-2.92;100.00
68508;BME280;55510;49.560;19.090;2023-02-17T00:34:25;97170.91;;;-3.09;99.33
68508;BME280;55510;49.560;19.090;2023-02-17T00:37:27;97164.31;;;-3.32;99.21
68508;BME280;55510;49.560;19.090;2023-02-17T00:40:28;97161.44;;;-3.49;99.67
68508;BME280;55510;49.560;19.090;2023-02-17T00:43:30;97146.75;;;-3.60;99.90
68508;BME280;55510;49.560;19.090;2023-02-17T00:46:31;97151.53;;;-3.55;100.00
68508;BME280;55510;49.560;19.090;2023-02-17T00:49:31;97148.94;;;-3.45;100.00
68508;BME280;55510;49.560;19.090;2023-02-17T00:52:32;97151.16;;;-3.41;100.00
68508;BME280;55510;49.560;19.090;2023-02-17T00:55:33;97145.53;;;-3.36;100.00
68508;BME280;55510;49.560;19.090;2023-02-17T00:58:34;97152.53;;;-3.37;100.00
68508;BME280;55510;49.560;19.090;2023-02-17T01:01:36;97141.69;;;-3.42;100.00
68508;BME280;55510;49.560;19.090;2023-02-17T01:04:37;97151.16;;;-3.41;100.00
68508;BME280;55510;49.560;19.090;2023-02-17T01:07:38;97143.22;;;-3.49;100.00
68508;BME280;55510;49.560;19.090;2023-02-17T01:10:41;97142.78;;;-3.54;100.00
68508;BME280;55510;49.560;19.090;2023-02-17T01:13:42;97136.34;;;-3.60;100.00
68508;BME280;55510;49.560;19.090;2023-02-17T01:16:45;97153.72;;;-3.60;100.00
68508;BME280;55510;49.560;19.090;2023-02-17T01:19:46;97145.50;;;-3.66;100.00
68508;BME280;55510;49.560;19.090;2023-02-17T01:22:46;97136.75;;;-3.65;100.00
68508;BME280;55510;49.560;19.090;2023-02-17T01:25:47;97129.09;;;-3.66;100.00
68508;BME280;55510;49.560;19.090;2023-02-17T01:28:51;97125.66;;;-3.67;100.00
68508;BME280;55510;49.560;19.090;2023-02-17T01:31:51;97111.97;;;-3.59;100.00
68508;BME280;55510;49.560;19.090;2023-02-17T01:34:52;97109.75;;;-3.64;100.00
68508;BME280;55510;49.560;19.090;2023-02-17T01:37:53;97106.19;;;-3.62;100.00
68508;BME280;55510;49.560;19.090;2023-02-17T01:40:54;97111.13;;;-3.59;100.00
68508;BME280;55510;49.560;19.090;2023-02-17T01:44:16;97098.81;;;-3.57;100.00
68508;BME280;55510;49.560;19.090;2023-02-17T01:47:17;97093.88;;;-3.51;100.00
68508;BME280;55510;49.560;19.090;2023-02-17T01:50:20;97094.16;;;-3.54;100.00
68508;BME280;55510;49.560;19.090;2023-02-17T01:53:27;97086.66;;;-3.47;100.00
68508;BME280;55510;49.560;19.090;2023-02-17T01:56:32;97088.97;;;-3.44;100.00
68508;BME280;55510;49.560;19.090;2023-02-17T01:59:34;97085.94;;;-3.39;100.00
68508;BME280;55510;49.560;19.090;2023-02-17T02:02:35;97087.28;;;-3.35;100.00
68508;BME280;55510;49.560;19.090;2023-02-17T02:05:37;97085.25;;;-3.31;100.00
68508;BME280;55510;49.560;19.090;2023-02-17T02:08:52;97085.66;;;-3.26;100.00
68508;BME280;55510;49.560;19.090;2023-02-17T02:11:54;97086.34;;;-3.24;100.00
68508;BME280;55510;49.560;19.090;2023-02-17T02:14:58;97082.38;;;-3.18;100.00
68508;BME280;55510;49.560;19.090;2023-02-17T02:35:01;97064.25;;;-3.10;99.61
68508;BME280;55510;49.560;19.090;2023-02-17T02:38:22;97056.06;;;-3.15;99.57
68508;BME280;55510;49.560;19.090;2023-02-17T02:41:28;97057.41;;;-3.21;99.66
68508;BME280;55510;49.560;19.090;2023-02-17T02:44:31;97050.56;;;-3.22;99.70
68508;BME280;55510;49.560;19.090;2023-02-17T02:47:41;97061.00;;;-3.22;99.25
68508;BME280;55510;49.560;19.090;2023-02-17T02:51:00;97051.94;;;-3.18;99.79
68508;BME280;55510;49.560;19.090;2023-02-17T02:54:28;97051.13;;;-3.18;99.35
68508;BME280;55510;49.560;19.090;2023-02-17T03:01:13;97054.25;;;-3.05;99.48
68508;BME280;55510;49.560;19.090;2023-02-17T03:08:00;97065.31;;;-2.93;100.00
68508;BME280;55510;49.560;19.090;2023-02-17T03:11:02;97066.69;;;-2.89;100.00
68508;BME280;55510;49.560;19.090;2023-02-17T03:14:09;97056.25;;;-2.79;100.00
68508;BME280;55510;49.560;19.090;2023-02-17T03:17:10;97046.34;;;-2.75;99.43
68508;BME280;55510;49.560;19.090;2023-02-17T03:20:13;97038.38;;;-2.74;99.77
68508;BME280;55510;49.560;19.090;2023-02-17T03:23:14;97058.41;;;-2.74;99.06
68508;BME280;55510;49.560;19.090;2023-02-17T03:26:15;97059.25;;;-2.84;99.07
68508;BME280;55510;49.560;19.090;2023-02-17T03:29:16;97058.28;;;-2.83;99.13
68508;BME280;55510;49.560;19.090;2023-02-17T03:32:16;97051.84;;;-2.79;99.84
68508;BME280;55510;49.560;19.090;2023-02-17T03:35:17;97045.25;;;-2.73;99.64
68508;BME280;55510;49.560;19.090;2023-02-17T03:38:22;97048.91;;;-2.66;99.62
68508;BME280;55510;49.560;19.090;2023-02-17T03:41:22;97043.03;;;-2.68;98.51
68508;BME280;55510;49.560;19.090;2023-02-17T03:44:23;97041.63;;;-2.62;98.27
68508;BME280;55510;49.560;19.090;2023-02-17T03:47:24;97029.56;;;-2.63;97.98
68508;BME280;55510;49.560;19.090;2023-02-17T03:50:24;97041.63;;;-2.62;97.94
68508;BME280;55510;49.560;19.090;2023-02-17T03:53:25;97033.00;;;-2.63;98.49
68508;BME280;55510;49.560;19.090;2023-02-17T03:56:26;97021.00;;;-2.55;99.26
68508;BME280;55510;49.560;19.090;2023-02-17T03:59:28;97019.63;;;-2.50;99.10
68508;BME280;55510;49.560;19.090;2023-02-17T04:02:28;97021.94;;;-2.46;99.10
68508;BME280;55510;49.560;19.090;2023-02-17T04:05:29;97024.56;;;-2.46;99.55
68508;BME280;55510;49.560;19.090;2023-02-17T04:08:30;97022.63;;;-2.44;99.12
68508;BME280;55510;49.560;19.090;2023-02-17T04:11:31;97012.06;;;-2.43;99.41
68508;BME280;55510;49.560;19.090;2023-02-17T04:14:32;97006.84;;;-2.43;99.09
68508;BME280;55510;49.560;19.090;2023-02-17T04:17:35;97004.44;;;-2.36;99.24
68508;BME280;55510;49.560;19.090;2023-02-17T04:20:36;96999.25;;;-2.36;98.78
68508;BME280;55510;49.560;19.090;2023-02-17T04:23:37;96997.09;;;-2.41;98.60
68508;BME280;55510;49.560;19.090;2023-02-17T04:26:38;96994.69;;;-2.34;98.63
68508;BME280;55510;49.560;19.090;2023-02-17T04:29:39;96993.69;;;-2.23;99.09
68508;BME280;55510;49.560;19.090;2023-02-17T04:32:39;97000.66;;;-2.24;99.29
68508;BME280;55510;49.560;19.090;2023-02-17T04:35:41;97001.88;;;-2.18;98.80
68508;BME280;55510;49.560;19.090;2023-02-17T04:38:42;96995.38;;;-2.14;99.53
68508;BME280;55510;49.560;19.090;2023-02-17T04:41:42;96990.56;;;-2.09;99.27
68508;BME280;55510;49.560;19.090;2023-02-17T04:44:43;96993.22;;;-2.00;98.90
68508;BME280;55510;49.560;19.090;2023-02-17T04:47:44;96997.03;;;-1.95;99.32
68508;BME280;55510;49.560;19.090;2023-02-17T04:50:45;96993.84;;;-1.88;98.73
68508;BME280;55510;49.560;19.090;2023-02-17T04:53:46;96985.41;;;-1.82;98.71
68508;BME280;55510;49.560;19.090;2023-02-17T04:56:46;96995.69;;;-1.81;98.52
68508;BME280;55510;49.560;19.090;2023-02-17T04:59:47;96995.94;;;-1.74;98.50
68508;BME280;55510;49.560;19.090;2023-02-17T05:02:47;96989.75;;;-1.73;98.25
68508;BME280;55510;49.560;19.090;2023-02-17T05:05:48;96989.44;;;-1.70;98.15
68508;BME280;55510;49.560;19.090;2023-02-17T05:08:49;96995.03;;;-1.65;98.58
68508;BME280;55510;49.560;19.090;2023-02-17T05:11:50;96999.63;;;-1.58;98.38
68508;BME280;55510;49.560;19.090;2023-02-17T05:14:50;96990.97;;;-1.59;98.25
68508;BME280;55510;49.560;19.090;2023-02-17T05:17:51;96986.28;;;-1.55;98.02
68508;BME280;55510;49.560;19.090;2023-02-17T05:20:52;96993.13;;;-1.54;97.75
68508;BME280;55510;49.560;19.090;2023-02-17T05:23:53;96989.13;;;-1.49;98.27
68508;BME280;55510;49.560;19.090;2023-02-17T05:26:53;96995.00;;;-1.47;98.78
68508;BME280;55510;49.560;19.090;2023-02-17T05:29:54;96996.16;;;-1.41;99.04
68508;BME280;55510;49.560;19.090;2023-02-17T05:32:55;96991.91;;;-1.42;98.62
68508;BME280;55510;49.560;19.090;2023-02-17T05:36:00;97004.44;;;-1.27;99.16
68508;BME280;55510;49.560;19.090;2023-02-17T05:39:01;96994.66;;;-1.25;98.44
68508;BME280;55510;49.560;19.090;2023-02-17T05:42:03;97000.69;;;-1.25;98.30
68508;BME280;55510;49.560;19.090;2023-02-17T05:45:04;96989.78;;;-1.20;98.88
68508;BME280;55510;49.560;19.090;2023-02-17T05:48:06;96976.78;;;-1.12;99.00
68508;BME280;55510;49.560;19.090;2023-02-17T05:51:07;96976.66;;;-1.02;99.16
68508;BME280;55510;49.560;19.090;2023-02-17T05:54:08;96980.44;;;-0.96;99.29
68508;BME280;55510;49.560;19.090;2023-02-17T05:57:09;96984.38;;;-0.92;98.99
68508;BME280;55510;49.560;19.090;2023-02-17T06:00:10;96975.56;;;-0.91;98.21
68508;BME280;55510;49.560;19.090;2023-02-17T06:03:12;96979.34;;;-0.85;98.63
68508;BME280;55510;49.560;19.090;2023-02-17T06:06:13;96983.16;;;-0.80;98.82
68508;BME280;55510;49.560;19.090;2023-02-17T06:09:13;96979.28;;;-0.67;98.33
68508;BME280;55510;49.560;19.090;2023-02-17T06:12:14;96978.63;;;-0.61;98.31
68508;BME280;55510;49.560;19.090;2023-02-17T06:15:15;96977.34;;;-0.57;98.43
68508;BME280;55510;49.560;19.090;2023-02-17T06:18:16;96980.94;;;-0.50;97.73
68508;BME280;55510;49.560;19.090;2023-02-17T06:21:16;96964.47;;;-0.50;96.94
68508;BME280;55510;49.560;19.090;2023-02-17T06:24:17;96964.28;;;-0.49;97.54
68508;BME280;55510;49.560;19.090;2023-02-17T06:27:18;96976.88;;;-0.52;97.38
68508;BME280;55510;49.560;19.090;2023-02-17T06:30:21;96965.56;;;-0.61;97.37
68508;BME280;55510;49.560;19.090;2023-02-17T06:33:22;96972.91;;;-0.65;97.61
68508;BME280;55510;49.560;19.090;2023-02-17T06:36:23;96969.78;;;-0.68;97.33
68508;BME280;55510;49.560;19.090;2023-02-17T06:39:23;96963.25;;;-0.64;97.65
68508;BME280;55510;49.560;19.090;2023-02-17T06:42:24;96965.25;;;-0.58;98.10
68508;BME280;55510;49.560;19.090;2023-02-17T06:45:25;96958.06;;;-0.48;98.61
68508;BME280;55510;49.560;19.090;2023-02-17T06:48:26;96962.06;;;-0.35;98.71
68508;BME280;55510;49.560;19.090;2023-02-17T06:51:27;96955.38;;;-0.21;98.24
68508;BME280;55510;49.560;19.090;2023-02-17T06:54:28;96952.59;;;-0.11;97.81
68508;BME280;55510;49.560;19.090;2023-02-17T06:57:28;96953.25;;;-0.01;98.10
68508;BME280;55510;49.560;19.090;2023-02-17T07:00:29;96946.41;;;0.14;97.49
68508;BME280;55510;49.560;19.090;2023-02-17T07:03:30;96947.38;;;0.30;97.20
68508;BME280;55510;49.560;19.090;2023-02-17T07:06:31;96958.53;;;0.49;96.53
68508;BME280;55510;49.560;19.090;2023-02-17T07:09:32;96955.38;;;0.70;96.54
68508;BME280;55510;49.560;19.090;2023-02-17T07:12:33;96957.78;;;0.96;96.59
68508;BME280;55510;49.560;19.090;2023-02-17T07:15:34;96971.78;;;1.20;96.08
68508;BME280;55510;49.560;19.090;2023-02-17T07:18:35;96972.28;;;1.24;93.45
68508;BME280;55510;49.560;19.090;2023-02-17T07:21:37;96962.09;;;1.29;93.42
68508;BME280;55510;49.560;19.090;2023-02-17T07:24:40;96963.88;;;1.37;93.42
68508;BME280;55510;49.560;19.090;2023-02-17T07:27:41;96966.16;;;1.40;92.66
68508;BME280;55510;49.560;19.090;2023-02-17T07:30:43;96964.78;;;1.52;93.01
68508;BME280;55510;49.560;19.090;2023-02-17T07:33:43;96947.69;;;1.56;92.21
68508;BME280;55510;49.560;19.090;2023-02-17T07:36:47;96946.31;;;1.69;92.52
68508;BME280;55510;49.560;19.090;2023-02-17T07:39:48;96951.81;;;1.82;91.86
68508;BME280;55510;49.560;19.090;2023-02-17T07:42:49;96944.13;;;2.04;92.26
68508;BME280;55510;49.560;19.090;2023-02-17T07:45:53;96938.41;;;2.24;91.06
68508;BME280;55510;49.560;19.090;2023-02-17T07:48:56;96938.53;;;2.45;90.33
68508;BME280;55510;49.560;19.090;2023-02-17T07:51:56;96934.06;;;2.69;90.34
68508;BME280;55510;49.560;19.090;2023-02-17T07:54:57;96940.25;;;2.92;88.80
68508;BME280;55510;49.560;19.090;2023-02-17T07:57:58;96925.38;;;3.14;88.20
68508;BME280;55510;49.560;19.090;2023-02-17T08:01:13;96931.31;;;3.38;86.29
68508;BME280;55510;49.560;19.090;2023-02-17T08:04:15;96949.19;;;3.42;85.10
68508;BME280;55510;49.560;19.090;2023-02-17T08:07:16;96959.25;;;3.39;84.77
68508;BME280;55510;49.560;19.090;2023-02-17T08:10:17;96949.00;;;3.44;85.67
68508;BME280;55510;49.560;19.090;2023-02-17T08:13:36;96956.44;;;3.55;85.44
68508;BME280;55510;49.560;19.090;2023-02-17T08:16:36;96949.69;;;3.68;84.39
68508;BME280;55510;49.560;19.090;2023-02-17T08:19:37;96952.91;;;3.85;83.36
68508;BME280;55510;49.560;19.090;2023-02-17T08:22:38;96950.22;;;4.00;82.57
68508;BME280;55510;49.560;19.090;2023-02-17T08:25:41;96954.78;;;4.13;81.56
68508;BME280;55510;49.560;19.090;2023-02-17T08:28:42;96954.09;;;4.26;79.78
68508;BME280;55510;49.560;19.090;2023-02-17T08:31:43;96950.16;;;4.37;80.07
68508;BME280;55510;49.560;19.090;2023-02-17T08:34:44;96942.16;;;4.52;78.60
68508;BME280;55510;49.560;19.090;2023-02-17T08:37:45;96938.06;;;4.71;78.18
68508;BME280;55510;49.560;19.090;2023-02-17T08:40:45;96932.91;;;4.91;77.21
68508;BME280;55510;49.560;19.090;2023-02-17T08:43:46;96929.72;;;5.02;76.48
68508;BME280;55510;49.560;19.090;2023-02-17T08:46:49;96934.66;;;5.12;76.20
68508;BME280;55510;49.560;19.090;2023-02-17T08:49:50;96936.91;;;5.15;74.51
68508;BME280;55510;49.560;19.090;2023-02-17T08:52:50;96941.16;;;5.16;75.06
68508;BME280;55510;49.560;19.090;2023-02-17T08:55:51;96941.34;;;5.15;75.36
68508;BME280;55510;49.560;19.090;2023-02-17T08:58:52;96941.75;;;5.12;76.40
68508;BME280;55510;49.560;19.090;2023-02-17T09:01:53;96937.44;;;5.04;77.57
68508;BME280;55510;49.560;19.090;2023-02-17T09:04:54;96925.47;;;5.08;78.33
68508;BME280;55510;49.560;19.090;2023-02-17T09:07:55;96914.34;;;5.13;79.32
68508;BME280;55510;49.560;19.090;2023-02-17T09:10:56;96904.84;;;5.18;79.00
68508;BME280;55510;49.560;19.090;2023-02-17T09:13:57;96914.13;;;5.07;79.74
68508;BME280;55510;49.560;19.090;2023-02-17T09:17:00;96915.81;;;5.22;79.80
68508;BME280;55510;49.560;19.090;2023-02-17T09:20:01;96915.19;;;5.13;79.78
68508;BME280;55510;49.560;19.090;2023-02-17T09:23:02;96925.03;;;4.98;80.81
68508;BME280;55510;49.560;19.090;2023-02-17T09:26:05;96925.81;;;4.63;81.14
68508;BME280;55510;49.560;19.090;2023-02-17T09:29:06;96922.97;;;4.36;82.85
68508;BME280;55510;49.560;19.090;2023-02-17T09:32:07;96920.94;;;4.31;84.40
68508;BME280;55510;49.560;19.090;2023-02-17T09:35:14;96922.34;;;4.34;86.12
68508;BME280;55510;49.560;19.090;2023-02-17T09:38:15;96931.56;;;4.45;87.82
68508;BME280;55510;49.560;19.090;2023-02-17T09:44:25;96928.06;;;4.66;86.63
68508;BME280;55510;49.560;19.090;2023-02-17T09:47:46;96920.00;;;4.74;86.03
68508;BME280;55510;49.560;19.090;2023-02-17T09:51:00;96921.06;;;4.80;85.56
68508;BME280;55510;49.560;19.090;2023-02-17T09:54:48;96922.09;;;4.86;86.17
68508;BME280;55510;49.560;19.090;2023-02-17T10:01:18;96896.94;;;4.83;86.25
68508;BME280;55510;49.560;19.090;2023-02-17T10:04:33;96891.22;;;4.79;84.15
68508;BME280;55510;49.560;19.090;2023-02-17T10:07:39;96902.94;;;4.70;85.23
68508;BME280;55510;49.560;19.090;2023-02-17T10:10:48;96913.44;;;4.63;85.71
68508;BME280;55510;49.560;19.090;2023-02-17T10:13:50;96914.19;;;4.50;86.13
68508;BME280;55510;49.560;19.090;2023-02-17T10:17:02;96900.25;;;4.35;86.49
68508;BME280;55510;49.560;19.090;2023-02-17T10:20:08;96897.78;;;4.27;86.97
68508;BME280;55510;49.560;19.090;2023-02-17T10:23:22;96888.13;;;4.12;87.18
68508;BME280;55510;49.560;19.090;2023-02-17T10:39:52;96883.78;;;3.98;88.60
68508;BME280;55510;49.560;19.090;2023-02-17T10:43:02;96880.84;;;3.92;88.97
68508;BME280;55510;49.560;19.090;2023-02-17T10:46:05;96887.34;;;3.90;89.63
68508;BME280;55510;49.560;19.090;2023-02-17T10:49:16;96869.91;;;3.89;89.80
68508;BME280;55510;49.560;19.090;2023-02-17T10:52:39;96879.22;;;3.91;90.15
68508;BME280;55510;49.560;19.090;2023-02-17T10:58:54;96867.69;;;3.92;90.60
68508;BME280;55510;49.560;19.090;2023-02-17T11:05:30;96854.03;;;3.82;91.44
68508;BME280;55510;49.560;19.090;2023-02-17T11:12:15;96844.88;;;3.78;92.51
68508;BME280;55510;49.560;19.090;2023-02-17T11:15:22;96837.00;;;3.78;92.97
68508;BME280;55510;49.560;19.090;2023-02-17T11:18:29;96834.97;;;3.80;93.13
68508;BME280;55510;49.560;19.090;2023-02-17T11:21:31;96837.81;;;3.79;92.93
68508;BME280;55510;49.560;19.090;2023-02-17T11:24:35;96835.44;;;3.84;93.41
68508;BME280;55510;49.560;19.090;2023-02-17T11:27:38;96834.44;;;3.85;94.02
68508;BME280;55510;49.560;19.090;2023-02-17T11:30:47;96833.47;;;3.92;93.93
68508;BME280;55510;49.560;19.090;2023-02-17T11:33:48;96824.16;;;3.97;92.72
68508;BME280;55510;49.560;19.090;2023-02-17T11:37:01;96838.00;;;3.99;93.42
68508;BME280;55510;49.560;19.090;2023-02-17T11:40:21;96830.72;;;4.01;93.72
68508;BME280;55510;49.560;19.090;2023-02-17T11:43:23;96825.88;;;4.04;93.82
68508;BME280;55510;49.560;19.090;2023-02-17T11:46:34;96825.94;;;4.11;92.68
68508;BME280;55510;49.560;19.090;2023-02-17T11:49:53;96819.22;;;4.09;92.97
68508;BME280;55510;49.560;19.090;2023-02-17T12:12:13;96788.81;;;4.06;95.28
68508;BME280;55510;49.560;19.090;2023-02-17T12:35:15;96774.16;;;3.46;97.65
68508;BME280;55510;49.560;19.090;2023-02-17T12:38:31;96765.81;;;3.43;97.47
68508;BME280;55510;49.560;19.090;2023-02-17T12:41:39;96755.66;;;3.40;98.51
68508;BME280;55510;49.560;19.090;2023-02-17T12:44:43;96755.66;;;3.40;99.09
68508;BME280;55510;49.560;19.090;2023-02-17T12:50:59;96747.78;;;3.61;98.15
68508;BME280;55510;49.560;19.090;2023-02-17T12:54:10;96739.72;;;3.70;97.61
68508;BME280;55510;49.560;19.090;2023-02-17T12:57:24;96745.00;;;3.70;97.57
68508;BME280;55510;49.560;19.090;2023-02-17T13:00:34;96745.00;;;3.70;97.43
68508;BME280;55510;49.560;19.090;2023-02-17T13:03:40;96743.03;;;3.79;96.90
68508;BME280;55510;49.560;19.090;2023-02-17T13:06:44;96741.03;;;3.81;97.07
68508;BME280;55510;49.560;19.090;2023-02-17T13:09:46;96728.34;;;3.91;96.34
68508;BME280;55510;49.560;19.090;2023-02-17T13:12:58;96726.50;;;3.91;96.45
68508;BME280;55510;49.560;19.090;2023-02-17T13:19:07;96718.66;;;3.98;96.80
68508;BME280;55510;49.560;19.090;2023-02-17T13:22:08;96724.97;;;4.04;95.90
68508;BME280;55510;49.560;19.090;2023-02-17T13:25:28;96709.03;;;4.12;95.40
68508;BME280;55510;49.560;19.090;2023-02-17T13:28:37;96701.13;;;4.19;95.26
68508;BME280;55510;49.560;19.090;2023-02-17T13:35:05;96686.97;;;4.20;94.96
68508;BME280;55510;49.560;19.090;2023-02-17T13:38:09;96679.50;;;4.24;94.61
68508;BME280;55510;49.560;19.090;2023-02-17T13:41:13;96673.59;;;4.21;94.75
68508;BME280;55510;49.560;19.090;2023-02-17T13:44:37;96678.06;;;4.21;95.28
68508;BME280;55510;49.560;19.090;2023-02-17T13:47:42;96676.00;;;4.16;94.56
68508;BME280;55510;49.560;19.090;2023-02-17T13:50:56;96668.56;;;4.27;95.00
68508;BME280;55510;49.560;19.090;2023-02-17T13:54:06;96661.47;;;4.27;94.13
68508;BME280;55510;49.560;19.090;2023-02-17T13:57:21;96652.56;;;4.35;93.64
68508;BME280;55510;49.560;19.090;2023-02-17T14:00:26;96648.53;;;4.39;94.26
68508;BME280;55510;49.560;19.090;2023-02-17T14:03:32;96643.25;;;4.39;94.57
68508;BME280;55510;49.560;19.090;2023-02-17T14:06:37;96643.06;;;4.41;94.52
68508;BME280;55510;49.560;19.090;2023-02-17T14:09:40;96637.59;;;4.35;94.46
68508;BME280;55510;49.560;19.090;2023-02-17T14:12:41;96630.69;;;4.34;94.83
68508;BME280;55510;49.560;19.090;2023-02-17T14:15:53;96623.81;;;4.40;94.67
68508;BME280;55510;49.560;19.090;2023-02-17T14:19:08;96635.75;;;4.36;94.69
68508;BME280;55510;49.560;19.090;2023-02-17T14:22:29;96621.81;;;4.42;94.76
68508;BME280;55510;49.560;19.090;2023-02-17T14:25:34;96614.09;;;4.41;94.71
68508;BME280;55510;49.560;19.090;2023-02-17T14:28:35;96618.31;;;4.35;94.23
68508;BME280;55510;49.560;19.090;2023-02-17T14:31:42;96632.28;;;4.29;94.70
68508;BME280;55510;49.560;19.090;2023-02-17T14:34:43;96636.94;;;4.27;95.06
68508;BME280;55510;49.560;19.090;2023-02-17T14:37:43;96635.91;;;4.21;95.36
68508;BME280;55510;49.560;19.090;2023-02-17T14:40:44;96625.38;;;4.21;95.69
68508;BME280;55510;49.560;19.090;2023-02-17T14:43:45;96617.66;;;4.19;95.44
68508;BME280;55510;49.560;19.090;2023-02-17T14:46:46;96612.78;;;4.16;96.10
68508;BME280;55510;49.560;19.090;2023-02-17T14:49:47;96616.25;;;4.24;95.91
68508;BME280;55510;49.560;19.090;2023-02-17T14:52:47;96608.78;;;4.27;95.81
68508;BME280;55510;49.560;19.090;2023-02-17T14:59:30;96599.25;;;4.26;96.09
68508;BME280;55510;49.560;19.090;2023-02-17T15:02:31;96603.31;;;4.29;96.45
68508;BME280;55510;49.560;19.090;2023-02-17T15:05:33;96591.56;;;4.38;96.76
68508;BME280;55510;49.560;19.090;2023-02-17T15:08:34;96587.09;;;4.32;97.23
68508;BME280;55510;49.560;19.090;2023-02-17T15:11:35;96574.31;;;4.29;97.16
68508;BME280;55510;49.560;19.090;2023-02-17T15:14:36;96564.22;;;4.32;96.94
68508;BME280;55510;49.560;19.090;2023-02-17T15:17:37;96558.91;;;4.26;97.40
68508;BME280;55510;49.560;19.090;2023-02-17T15:20:42;96542.09;;;4.20;98.08
68508;BME280;55510;49.560;19.090;2023-02-17T15:23:44;96537.41;;;4.15;98.06
68508;BME280;55510;49.560;19.090;2023-02-17T15:26:44;96528.09;;;4.19;97.75
68508;BME280;55510;49.560;19.090;2023-02-17T15:29:45;96530.56;;;4.21;98.21
68508;BME280;55510;49.560;19.090;2023-02-17T15:32:47;96529.28;;;4.17;98.49
68508;BME280;55510;49.560;19.090;2023-02-17T15:35:50;96533.97;;;4.21;98.14
68508;BME280;55510;49.560;19.090;2023-02-17T15:38:53;96527.50;;;4.17;98.35
68508;BME280;55510;49.560;19.090;2023-02-17T15:41:54;96528.69;;;4.08;98.09
68508;BME280;55510;49.560;19.090;2023-02-17T15:44:57;96540.84;;;4.16;98.24
68508;BME280;55510;49.560;19.090;2023-02-17T15:51:03;96544.03;;;3.91;98.99
68508;BME280;55510;49.560;19.090;2023-02-17T15:54:04;96521.50;;;3.82;99.75
68508;BME280;55510;49.560;19.090;2023-02-17T15:57:05;96507.97;;;3.85;100.00
68508;BME280;55510;49.560;19.090;2023-02-17T16:00:25;96494.78;;;3.85;100.00
68508;BME280;55510;49.560;19.090;2023-02-17T16:03:26;96491.22;;;4.06;100.00
68508;BME280;55510;49.560;19.090;2023-02-17T16:06:27;96504.56;;;4.04;100.00
68508;BME280;55510;49.560;19.090;2023-02-17T16:09:28;96504.97;;;4.15;100.00
68508;BME280;55510;49.560;19.090;2023-02-17T16:12:30;96507.44;;;4.16;100.00
68508;BME280;55510;49.560;19.090;2023-02-17T16:15:31;96505.78;;;4.02;100.00
68508;BME280;55510;49.560;19.090;2023-02-17T16:18:32;96495.63;;;3.92;100.00
68508;BME280;55510;49.560;19.090;2023-02-17T16:21:33;96492.56;;;3.88;100.00
68508;BME280;55510;49.560;19.090;2023-02-17T16:24:34;96495.41;;;3.94;100.00
68508;BME280;55510;49.560;19.090;2023-02-17T16:27:36;96491.56;;;3.96;100.00
68508;BME280;55510;49.560;19.090;2023-02-17T16:30:37;96487.75;;;3.99;100.00
68508;BME280;55510;49.560;19.090;2023-02-17T16:33:37;96490.16;;;4.00;100.00
68508;BME280;55510;49.560;19.090;2023-02-17T16:36:40;96497.63;;;3.97;100.00
68508;BME280;55510;49.560;19.090;2023-02-17T16:39:42;96495.66;;;3.99;100.00
68508;BME280;55510;49.560;19.090;2023-02-17T16:42:43;96492.78;;;3.94;100.00
68508;BME280;55510;49.560;19.090;2023-02-17T16:45:58;96493.19;;;3.97;100.00
68508;BME280;55510;49.560;19.090;2023-02-17T16:49:01;96503.75;;;4.04;100.00
68508;BME280;55510;49.560;19.090;2023-02-17T16:52:04;96493.38;;;3.96;100.00
68508;BME280;55510;49.560;19.090;2023-02-17T16:55:05;96488.50;;;3.92;100.00
68508;BME280;55510;49.560;19.090;2023-02-17T16:58:17;96484.72;;;4.02;100.00
68508;BME280;55510;49.560;19.090;2023-02-17T17:01:22;96497.47;;;3.98;100.00
68508;BME280;55510;49.560;19.090;2023-02-17T17:04:22;96494.03;;;3.98;100.00
68508;BME280;55510;49.560;19.090;2023-02-17T17:07:24;96493.19;;;3.97;100.00
68508;BME280;55510;49.560;19.090;2023-02-17T17:10:30;96495.41;;;3.94;100.00
68508;BME280;55510;49.560;19.090;2023-02-17T17:13:31;96491.97;;;3.93;100.00
68508;BME280;55510;49.560;19.090;2023-02-17T17:16:32;96487.97;;;4.04;100.00
68508;BME280;55510;49.560;19.090;2023-02-17T17:19:34;96480.25;;;4.02;100.00
68508;BME280;55510;49.560;19.090;2023-02-17T17:22:34;96481.03;;;3.96;100.00
68508;BME280;55510;49.560;19.090;2023-02-17T17:25:37;96477.44;;;4.04;100.00
68508;BME280;55510;49.560;19.090;2023-02-17T17:28:38;96484.53;;;4.10;100.00
68508;BME280;55510;49.560;19.090;2023-02-17T17:31:39;96478.06;;;4.19;100.00
68508;BME280;55510;49.560;19.090;2023-02-17T17:34:40;96479.88;;;4.12;100.00
68508;BME280;55510;49.560;19.090;2023-02-17T17:37:41;96466.50;;;4.20;100.00
68508;BME280;55510;49.560;19.090;2023-02-17T17:40:42;96465.69;;;4.13;100.00
68508;BME280;55510;49.560;19.090;2023-02-17T17:43:49;96465.69;;;4.13;100.00
68508;BME280;55510;49.560;19.090;2023-02-17T17:46:50;96462.22;;;4.13;100.00
68508;BME280;55510;49.560;19.090;2023-02-17T17:49:51;96449.06;;;4.06;100.00
68508;BME280;55510;49.560;19.090;2023-02-17T17:52:52;96454.53;;;4.11;100.00